Halton, United Kingdom
Current Conditions -  °F | °C
As of 2:50 AM on Saturday 20 Dec 2014 (Local Time) from EGGP Reporting Station
Rain Showers Rain Showers  
Wind Chill: 37°   Ceiling: Unl
Heat Index: 46°   Visibility: 6mi
Dew Point: 39°   Wind: 32mph
Humidity: 76%   Direction: 270°W
Pressure: 30.09"   Gusts: NA
Location:  53.32°N, 2.7°W
Report Text: EGGP 200250Z 27028KT 9999 -SHRA FEW030 SCT045 08/04 Q1019
Loading
Personal Weather Stations






























Interactive Weather Map New forecast layout! Learn more

10-Day Weather Forecast

Advertisements
Track Severe Weather on mobile